Ana Sayfa
METAR-TAF:

METAR-TAF

Havaalanları :

Vientiane, Laos

Enlem: 17-57N, Boylam: 102-34E, yükseklik: 171 m

Güncel hava durumu gözlemi

Rapor saat 07:00 UTC de 20 dakika önce yapıldı.
Rüzgar batı/kuzeybatıdan 2 kt
Sıcaklık 37°C
Nem 33%
Basınç 1006 hPa
Görüş mesafesi: 8000 m

METAR: VLVT 300700Z 30002KT 8000 NSC 37/18 Q1006 NOSIG

Saat: 14:20 (07:20 UTC)

Tahmin

Rapor saat 05:00 UTC de 2 saat ve 20 dakika önce yapıldı.
Ayın 30'si saat 06 UTC'den ayın 31'si saat 06 UTC'ye kadar geçerli Tahmin
Rüzgar güneydoğudan 4 kt
Görüş mesafesi: 8000 m
2000 ft yükseklikte az bulutlu
20000 ft yükseklikte parçalı bulutlu

TAF: VLVT 300500Z 3006/3106 14004KT 8000 FEW020 SCT200

4.000'den fazla havaalanı için hava durumu gözlemleri ve tahminleri (METAR ve TAF raporları).

Kullanılabilir istasyonlar harita üzerinde sarı ve kırmızı noktalarla gösterilir.

İstasyonun adını görmek için fareyi noktanın üzerinde gezdirin.

Sonrasında hava gözlem ve tahminlerini görmek için tıklayın.

Haritayı değiştirmek için: yaklaştırmak için siyah artı işaretli yeşil düğmeye ve uzaklaştırmak için de eksi işaretli düğmeye hızla tıklayın; bitişik haritalar için yeşil okları kullanın.


METAR-TAF: